Terminal Aerodrome Forecast
Issued by NWS

Home | Current Version | Previous Version | Text Only | Print | Product List | Glossary On
Versions: 1 2 3 4 5 6 7 8 9 10 11 12 13 14 15 16 17 18 19 20 21 22 23 24 25
000
FTUS42 KMHX 051122 AAA
TAFOAJ
TAF AMD
KOAJ 051122Z 0511/0612 VRB03KT 3SM BR OVC006
     FM051300 04005KT P6SM SCT020 BKN035
     FM051800 04010KT P6SM VCTS SCT050CB
     FM060100 05006KT P6SM VCSH BKN040
     FM060700 01003KT 4SM BR SCT007 BKN015
      AMD LTD TO CLD VIS AND WIND=

USA.gov is the U.S. government's official web portal to all federal, state and local government web resources and services.